sensor_id;sensor_type;location;lat;lon;timestamp;P1;durP1;ratioP1;P2;durP2;ratioP2
12348;SDS011;5974;42.710;27.258;2022-09-12T00:08:21;1.40;;;1.23;;
12348;SDS011;5974;42.710;27.258;2022-09-12T00:10:48;2.50;;;1.30;;
12348;SDS011;5974;42.710;27.258;2022-09-12T00:13:17;1.60;;;1.13;;
12348;SDS011;5974;42.710;27.258;2022-09-12T00:15:44;2.00;;;1.13;;
12348;SDS011;5974;42.710;27.258;2022-09-12T00:18:12;1.80;;;1.40;;
12348;SDS011;5974;42.710;27.258;2022-09-12T00:20:40;1.37;;;1.27;;
12348;SDS011;5974;42.710;27.258;2022-09-12T00:23:06;1.40;;;1.30;;
12348;SDS011;5974;42.710;27.258;2022-09-12T00:25:34;4.30;;;1.20;;
12348;SDS011;5974;42.710;27.258;2022-09-12T00:28:05;1.30;;;1.17;;
12348;SDS011;5974;42.710;27.258;2022-09-12T00:30:32;1.33;;;1.23;;
12348;SDS011;5974;42.710;27.258;2022-09-12T00:32:59;2.90;;;1.20;;
12348;SDS011;5974;42.710;27.258;2022-09-12T00:35:25;1.50;;;1.40;;
12348;SDS011;5974;42.710;27.258;2022-09-12T00:37:52;1.40;;;1.30;;
12348;SDS011;5974;42.710;27.258;2022-09-12T00:40:19;1.40;;;1.30;;
12348;SDS011;5974;42.710;27.258;2022-09-12T00:42:47;4.57;;;1.40;;
12348;SDS011;5974;42.710;27.258;2022-09-12T00:45:17;2.40;;;1.30;;
12348;SDS011;5974;42.710;27.258;2022-09-12T00:47:45;2.27;;;1.10;;
12348;SDS011;5974;42.710;27.258;2022-09-12T00:50:12;1.37;;;1.23;;
12348;SDS011;5974;42.710;27.258;2022-09-12T00:52:40;2.57;;;1.00;;
12348;SDS011;5974;42.710;27.258;2022-09-12T00:55:10;1.60;;;0.93;;
12348;SDS011;5974;42.710;27.258;2022-09-12T00:57:39;1.20;;;1.10;;
12348;SDS011;5974;42.710;27.258;2022-09-12T01:00:10;0.90;;;0.90;;
12348;SDS011;5974;42.710;27.258;2022-09-12T01:02:39;2.37;;;1.00;;
12348;SDS011;5974;42.710;27.258;2022-09-12T01:05:07;0.80;;;0.80;;
12348;SDS011;5974;42.710;27.258;2022-09-12T01:07:34;3.23;;;1.30;;
12348;SDS011;5974;42.710;27.258;2022-09-12T01:10:01;3.13;;;1.20;;
12348;SDS011;5974;42.710;27.258;2022-09-12T01:12:28;1.00;;;1.00;;
12348;SDS011;5974;42.710;27.258;2022-09-12T01:14:56;2.27;;;1.20;;
12348;SDS011;5974;42.710;27.258;2022-09-12T01:17:25;2.63;;;1.10;;
12348;SDS011;5974;42.710;27.258;2022-09-12T01:20:06;0.97;;;0.97;;
12348;SDS011;5974;42.710;27.258;2022-09-12T01:25:37;1.83;;;1.13;;
12348;SDS011;5974;42.710;27.258;2022-09-12T01:28:13;1.73;;;0.80;;
12348;SDS011;5974;42.710;27.258;2022-09-12T01:30:48;2.83;;;0.93;;
12348;SDS011;5974;42.710;27.258;2022-09-12T01:33:31;1.70;;;0.90;;
12348;SDS011;5974;42.710;27.258;2022-09-12T01:38:45;1.80;;;1.07;;
12348;SDS011;5974;42.710;27.258;2022-09-12T01:41:15;1.03;;;0.80;;
12348;SDS011;5974;42.710;27.258;2022-09-12T01:43:45;0.90;;;0.90;;
12348;SDS011;5974;42.710;27.258;2022-09-12T01:46:17;0.90;;;0.90;;
12348;SDS011;5974;42.710;27.258;2022-09-12T01:48:45;2.53;;;1.20;;
12348;SDS011;5974;42.710;27.258;2022-09-12T01:51:15;2.10;;;1.00;;
12348;SDS011;5974;42.710;27.258;2022-09-12T01:53:45;3.47;;;0.93;;
12348;SDS011;5974;42.710;27.258;2022-09-12T01:56:14;1.10;;;0.90;;
12348;SDS011;5974;42.710;27.258;2022-09-12T01:58:44;1.10;;;0.97;;
12348;SDS011;5974;42.710;27.258;2022-09-12T02:01:13;1.70;;;1.17;;
12348;SDS011;5974;42.710;27.258;2022-09-12T02:03:43;2.27;;;1.13;;
12348;SDS011;5974;42.710;27.258;2022-09-12T02:06:13;2.97;;;1.10;;
12348;SDS011;5974;42.710;27.258;2022-09-12T02:08:43;1.17;;;1.03;;
12348;SDS011;5974;42.710;27.258;2022-09-12T02:11:12;1.33;;;0.97;;
12348;SDS011;5974;42.710;27.258;2022-09-12T02:13:40;1.80;;;1.10;;
12348;SDS011;5974;42.710;27.258;2022-09-12T02:16:07;0.80;;;0.80;;
12348;SDS011;5974;42.710;27.258;2022-09-12T02:18:35;1.00;;;1.00;;
12348;SDS011;5974;42.710;27.258;2022-09-12T02:21:05;1.40;;;0.87;;
12348;SDS011;5974;42.710;27.258;2022-09-12T02:23:32;1.20;;;0.90;;
12348;SDS011;5974;42.710;27.258;2022-09-12T02:26:02;1.03;;;0.90;;
12348;SDS011;5974;42.710;27.258;2022-09-12T02:28:32;0.90;;;0.90;;
12348;SDS011;5974;42.710;27.258;2022-09-12T02:31:01;1.57;;;1.10;;
12348;SDS011;5974;42.710;27.258;2022-09-12T02:33:30;1.23;;;0.97;;
12348;SDS011;5974;42.710;27.258;2022-09-12T02:35:59;2.20;;;1.00;;
12348;SDS011;5974;42.710;27.258;2022-09-12T02:38:31;0.93;;;0.93;;
12348;SDS011;5974;42.710;27.258;2022-09-12T02:41:00;2.10;;;1.20;;
12348;SDS011;5974;42.710;27.258;2022-09-12T02:43:27;1.80;;;0.90;;
12348;SDS011;5974;42.710;27.258;2022-09-12T02:45:54;1.10;;;1.00;;
12348;SDS011;5974;42.710;27.258;2022-09-12T02:51:27;1.00;;;1.00;;
12348;SDS011;5974;42.710;27.258;2022-09-12T02:53:55;1.67;;;1.10;;
12348;SDS011;5974;42.710;27.258;2022-09-12T02:56:22;1.30;;;1.20;;
12348;SDS011;5974;42.710;27.258;2022-09-12T02:58:51;1.33;;;1.20;;
12348;SDS011;5974;42.710;27.258;2022-09-12T03:01:20;3.87;;;1.20;;
12348;SDS011;5974;42.710;27.258;2022-09-12T03:03:52;0.97;;;0.97;;
12348;SDS011;5974;42.710;27.258;2022-09-12T03:06:25;1.70;;;1.00;;
12348;SDS011;5974;42.710;27.258;2022-09-12T03:08:59;1.20;;;1.10;;
12348;SDS011;5974;42.710;27.258;2022-09-12T03:14:16;1.30;;;1.20;;
12348;SDS011;5974;42.710;27.258;2022-09-12T03:16:49;2.30;;;1.23;;
12348;SDS011;5974;42.710;27.258;2022-09-12T03:19:19;3.60;;;1.40;;
12348;SDS011;5974;42.710;27.258;2022-09-12T03:21:52;1.27;;;1.07;;
12348;SDS011;5974;42.710;27.258;2022-09-12T03:24:25;3.10;;;0.93;;
12348;SDS011;5974;42.710;27.258;2022-09-12T03:26:57;1.40;;;1.30;;
12348;SDS011;5974;42.710;27.258;2022-09-12T03:29:26;1.07;;;1.00;;
12348;SDS011;5974;42.710;27.258;2022-09-12T03:31:53;2.00;;;1.03;;
12348;SDS011;5974;42.710;27.258;2022-09-12T03:34:21;2.03;;;1.13;;
12348;SDS011;5974;42.710;27.258;2022-09-12T03:36:48;1.10;;;1.00;;
12348;SDS011;5974;42.710;27.258;2022-09-12T03:39:14;1.17;;;1.00;;
12348;SDS011;5974;42.710;27.258;2022-09-12T03:41:42;1.17;;;1.00;;
12348;SDS011;5974;42.710;27.258;2022-09-12T03:44:09;1.20;;;1.20;;
12348;SDS011;5974;42.710;27.258;2022-09-12T03:46:35;1.00;;;1.00;;
12348;SDS011;5974;42.710;27.258;2022-09-12T03:49:02;2.77;;;1.03;;
12348;SDS011;5974;42.710;27.258;2022-09-12T03:51:30;2.37;;;1.20;;
12348;SDS011;5974;42.710;27.258;2022-09-12T03:53:56;1.27;;;1.17;;
12348;SDS011;5974;42.710;27.258;2022-09-12T03:56:23;2.07;;;1.10;;
12348;SDS011;5974;42.710;27.258;2022-09-12T03:58:51;0.93;;;0.93;;
12348;SDS011;5974;42.710;27.258;2022-09-12T04:01:18;0.90;;;0.90;;
12348;SDS011;5974;42.710;27.258;2022-09-12T04:03:46;2.13;;;0.90;;
12348;SDS011;5974;42.710;27.258;2022-09-12T04:06:13;0.97;;;0.90;;
12348;SDS011;5974;42.710;27.258;2022-09-12T04:08:41;1.97;;;0.80;;
12348;SDS011;5974;42.710;27.258;2022-09-12T04:11:10;2.03;;;0.80;;
12348;SDS011;5974;42.710;27.258;2022-09-12T04:13:37;1.87;;;0.93;;
12348;SDS011;5974;42.710;27.258;2022-09-12T04:16:06;0.87;;;0.87;;
12348;SDS011;5974;42.710;27.258;2022-09-12T04:18:34;3.83;;;1.40;;
12348;SDS011;5974;42.710;27.258;2022-09-12T04:21:02;1.93;;;1.33;;
12348;SDS011;5974;42.710;27.258;2022-09-12T04:23:29;1.47;;;1.20;;
12348;SDS011;5974;42.710;27.258;2022-09-12T04:25:56;1.33;;;1.13;;
12348;SDS011;5974;42.710;27.258;2022-09-12T04:28:23;1.10;;;1.10;;
12348;SDS011;5974;42.710;27.258;2022-09-12T04:30:50;1.50;;;1.40;;
12348;SDS011;5974;42.710;27.258;2022-09-12T04:33:18;1.60;;;1.20;;
12348;SDS011;5974;42.710;27.258;2022-09-12T04:35:45;1.83;;;1.10;;
12348;SDS011;5974;42.710;27.258;2022-09-12T04:38:12;2.00;;;1.20;;
12348;SDS011;5974;42.710;27.258;2022-09-12T04:40:39;2.33;;;1.20;;
12348;SDS011;5974;42.710;27.258;2022-09-12T04:43:05;1.83;;;1.00;;
12348;SDS011;5974;42.710;27.258;2022-09-12T04:45:33;1.10;;;1.10;;
12348;SDS011;5974;42.710;27.258;2022-09-12T04:47:59;2.90;;;1.30;;
12348;SDS011;5974;42.710;27.258;2022-09-12T04:50:28;2.50;;;1.57;;
12348;SDS011;5974;42.710;27.258;2022-09-12T04:52:54;1.90;;;1.47;;
12348;SDS011;5974;42.710;27.258;2022-09-12T04:55:21;3.63;;;1.33;;
12348;SDS011;5974;42.710;27.258;2022-09-12T04:57:50;1.37;;;1.20;;
12348;SDS011;5974;42.710;27.258;2022-09-12T05:00:17;1.70;;;0.93;;
12348;SDS011;5974;42.710;27.258;2022-09-12T05:02:44;3.03;;;1.00;;
12348;SDS011;5974;42.710;27.258;2022-09-12T05:05:11;1.33;;;1.10;;
12348;SDS011;5974;42.710;27.258;2022-09-12T05:07:39;1.50;;;0.80;;
12348;SDS011;5974;42.710;27.258;2022-09-12T05:10:06;1.13;;;0.87;;
12348;SDS011;5974;42.710;27.258;2022-09-12T05:12:33;1.40;;;0.80;;
12348;SDS011;5974;42.710;27.258;2022-09-12T05:15:00;1.00;;;0.90;;
12348;SDS011;5974;42.710;27.258;2022-09-12T05:17:27;2.87;;;1.10;;
12348;SDS011;5974;42.710;27.258;2022-09-12T05:19:54;4.43;;;0.80;;
12348;SDS011;5974;42.710;27.258;2022-09-12T05:22:21;4.00;;;1.00;;
12348;SDS011;5974;42.710;27.258;2022-09-12T05:24:49;2.60;;;1.00;;
12348;SDS011;5974;42.710;27.258;2022-09-12T05:27:15;2.23;;;1.00;;
12348;SDS011;5974;42.710;27.258;2022-09-12T05:29:42;1.10;;;0.90;;
12348;SDS011;5974;42.710;27.258;2022-09-12T05:32:09;1.33;;;1.10;;
12348;SDS011;5974;42.710;27.258;2022-09-12T05:34:36;0.80;;;0.80;;
12348;SDS011;5974;42.710;27.258;2022-09-12T05:37:03;2.13;;;0.83;;
12348;SDS011;5974;42.710;27.258;2022-09-12T05:39:30;1.20;;;0.90;;
12348;SDS011;5974;42.710;27.258;2022-09-12T05:41:58;1.13;;;1.05;;
12348;SDS011;5974;42.710;27.258;2022-09-12T05:44:24;2.08;;;1.25;;
12348;SDS011;5974;42.710;27.258;2022-09-12T05:46:52;1.20;;;0.80;;
12348;SDS011;5974;42.710;27.258;2022-09-12T05:49:18;2.53;;;1.00;;
12348;SDS011;5974;42.710;27.258;2022-09-12T05:51:45;0.70;;;0.70;;
12348;SDS011;5974;42.710;27.258;2022-09-12T05:54:13;1.33;;;0.93;;
12348;SDS011;5974;42.710;27.258;2022-09-12T05:56:40;1.67;;;0.90;;
12348;SDS011;5974;42.710;27.258;2022-09-12T06:02:12;1.77;;;1.00;;
12348;SDS011;5974;42.710;27.258;2022-09-12T06:04:38;1.35;;;1.00;;
12348;SDS011;5974;42.710;27.258;2022-09-12T06:07:06;1.33;;;0.95;;
12348;SDS011;5974;42.710;27.258;2022-09-12T06:09:32;1.10;;;1.10;;
12348;SDS011;5974;42.710;27.258;2022-09-12T06:11:59;4.10;;;1.25;;
12348;SDS011;5974;42.710;27.258;2022-09-12T06:14:26;2.83;;;0.70;;
12348;SDS011;5974;42.710;27.258;2022-09-12T06:16:52;3.53;;;0.88;;
12348;SDS011;5974;42.710;27.258;2022-09-12T06:19:21;0.98;;;0.98;;
12348;SDS011;5974;42.710;27.258;2022-09-12T06:21:49;2.05;;;0.90;;
12348;SDS011;5974;42.710;27.258;2022-09-12T06:24:17;3.03;;;1.00;;
12348;SDS011;5974;42.710;27.258;2022-09-12T06:26:43;1.45;;;0.90;;
12348;SDS011;5974;42.710;27.258;2022-09-12T06:29:11;1.50;;;0.95;;
12348;SDS011;5974;42.710;27.258;2022-09-12T06:31:38;0.98;;;0.90;;
12348;SDS011;5974;42.710;27.258;2022-09-12T06:34:06;2.08;;;0.95;;
12348;SDS011;5974;42.710;27.258;2022-09-12T06:36:35;0.90;;;0.90;;
12348;SDS011;5974;42.710;27.258;2022-09-12T06:39:03;1.42;;;1.02;;
12348;SDS011;5974;42.710;27.258;2022-09-12T06:41:30;1.30;;;0.82;;
12348;SDS011;5974;42.710;27.258;2022-09-12T06:43:57;1.55;;;1.00;;
12348;SDS011;5974;42.710;27.258;2022-09-12T06:46:24;3.95;;;0.95;;
12348;SDS011;5974;42.710;27.258;2022-09-12T06:51:55;3.80;;;1.15;;
12348;SDS011;5974;42.710;27.258;2022-09-12T06:54:21;1.08;;;1.00;;
12348;SDS011;5974;42.710;27.258;2022-09-12T06:56:50;1.35;;;0.90;;
12348;SDS011;5974;42.710;27.258;2022-09-12T06:59:17;2.60;;;0.93;;
12348;SDS011;5974;42.710;27.258;2022-09-12T07:01:44;1.48;;;1.00;;
12348;SDS011;5974;42.710;27.258;2022-09-12T07:04:10;3.67;;;1.10;;
12348;SDS011;5974;42.710;27.258;2022-09-12T07:06:38;0.90;;;0.90;;
12348;SDS011;5974;42.710;27.258;2022-09-12T07:09:06;1.10;;;1.00;;
12348;SDS011;5974;42.710;27.258;2022-09-12T07:11:35;3.20;;;1.20;;
12348;SDS011;5974;42.710;27.258;2022-09-12T07:14:02;1.30;;;1.00;;
12348;SDS011;5974;42.710;27.258;2022-09-12T07:16:29;1.10;;;0.83;;
12348;SDS011;5974;42.710;27.258;2022-09-12T07:18:56;1.03;;;1.00;;
12348;SDS011;5974;42.710;27.258;2022-09-12T07:21:23;0.90;;;0.80;;
12348;SDS011;5974;42.710;27.258;2022-09-12T07:23:50;2.57;;;0.90;;
12348;SDS011;5974;42.710;27.258;2022-09-12T07:26:20;1.13;;;0.80;;
12348;SDS011;5974;42.710;27.258;2022-09-12T07:28:49;1.08;;;0.95;;
12348;SDS011;5974;42.710;27.258;2022-09-12T07:31:16;0.80;;;0.80;;
12348;SDS011;5974;42.710;27.258;2022-09-12T07:33:43;1.08;;;0.80;;
12348;SDS011;5974;42.710;27.258;2022-09-12T07:36:10;2.10;;;0.90;;
12348;SDS011;5974;42.710;27.258;2022-09-12T07:38:37;2.10;;;0.80;;
12348;SDS011;5974;42.710;27.258;2022-09-12T07:41:08;1.10;;;0.90;;
12348;SDS011;5974;42.710;27.258;2022-09-12T07:43:36;1.70;;;0.97;;
12348;SDS011;5974;42.710;27.258;2022-09-12T07:46:03;1.37;;;0.60;;
12348;SDS011;5974;42.710;27.258;2022-09-12T07:48:32;2.30;;;0.90;;
12348;SDS011;5974;42.710;27.258;2022-09-12T07:50:59;0.70;;;0.70;;
12348;SDS011;5974;42.710;27.258;2022-09-12T07:53:26;1.10;;;0.80;;
12348;SDS011;5974;42.710;27.258;2022-09-12T07:55:53;0.80;;;0.80;;
12348;SDS011;5974;42.710;27.258;2022-09-12T07:58:19;1.50;;;0.80;;
12348;SDS011;5974;42.710;27.258;2022-09-12T08:00:47;0.80;;;0.80;;
12348;SDS011;5974;42.710;27.258;2022-09-12T08:03:14;0.90;;;0.90;;
12348;SDS011;5974;42.710;27.258;2022-09-12T08:05:41;2.00;;;0.80;;
12348;SDS011;5974;42.710;27.258;2022-09-12T08:08:07;1.00;;;0.80;;
12348;SDS011;5974;42.710;27.258;2022-09-12T08:10:34;0.70;;;0.70;;
12348;SDS011;5974;42.710;27.258;2022-09-12T08:13:01;3.37;;;0.77;;
12348;SDS011;5974;42.710;27.258;2022-09-12T08:15:28;0.63;;;0.63;;
12348;SDS011;5974;42.710;27.258;2022-09-12T08:17:56;1.80;;;0.80;;
12348;SDS011;5974;42.710;27.258;2022-09-12T08:20:23;0.80;;;0.80;;
12348;SDS011;5974;42.710;27.258;2022-09-12T08:22:49;0.83;;;0.70;;
12348;SDS011;5974;42.710;27.258;2022-09-12T08:25:16;1.80;;;0.70;;
12348;SDS011;5974;42.710;27.258;2022-09-12T08:27:42;0.77;;;0.70;;
12348;SDS011;5974;42.710;27.258;2022-09-12T08:30:11;2.63;;;0.80;;
12348;SDS011;5974;42.710;27.258;2022-09-12T08:32:38;1.03;;;0.80;;
12348;SDS011;5974;42.710;27.258;2022-09-12T08:35:06;2.37;;;0.73;;
12348;SDS011;5974;42.710;27.258;2022-09-12T08:37:33;0.77;;;0.77;;
12348;SDS011;5974;42.710;27.258;2022-09-12T08:40:00;0.97;;;0.83;;
12348;SDS011;5974;42.710;27.258;2022-09-12T08:42:30;0.80;;;0.80;;
12348;SDS011;5974;42.710;27.258;2022-09-12T08:45:04;0.80;;;0.73;;
12348;SDS011;5974;42.710;27.258;2022-09-12T08:47:36;0.70;;;0.70;;
12348;SDS011;5974;42.710;27.258;2022-09-12T08:50:13;1.50;;;0.70;;
12348;SDS011;5974;42.710;27.258;2022-09-12T08:52:43;1.00;;;0.63;;
12348;SDS011;5974;42.710;27.258;2022-09-12T08:55:20;2.00;;;0.80;;
12348;SDS011;5974;42.710;27.258;2022-09-12T08:57:48;2.20;;;0.87;;
12348;SDS011;5974;42.710;27.258;2022-09-12T09:00:16;1.70;;;0.80;;
12348;SDS011;5974;42.710;27.258;2022-09-12T09:02:47;1.47;;;0.80;;
12348;SDS011;5974;42.710;27.258;2022-09-12T09:05:22;0.60;;;0.60;;
12348;SDS011;5974;42.710;27.258;2022-09-12T09:07:58;1.27;;;0.70;;
12348;SDS011;5974;42.710;27.258;2022-09-12T09:10:28;1.50;;;0.80;;
12348;SDS011;5974;42.710;27.258;2022-09-12T09:12:59;1.70;;;0.90;;
12348;SDS011;5974;42.710;27.258;2022-09-12T09:15:33;1.40;;;0.80;;
12348;SDS011;5974;42.710;27.258;2022-09-12T09:18:03;1.10;;;0.90;;
12348;SDS011;5974;42.710;27.258;2022-09-12T09:20:33;0.80;;;0.80;;
12348;SDS011;5974;42.710;27.258;2022-09-12T09:23:05;1.80;;;0.70;;
12348;SDS011;5974;42.710;27.258;2022-09-12T09:25:39;0.87;;;0.80;;
12348;SDS011;5974;42.710;27.258;2022-09-12T09:28:10;1.70;;;0.50;;
12348;SDS011;5974;42.710;27.258;2022-09-12T09:30:38;0.80;;;0.80;;
12348;SDS011;5974;42.710;27.258;2022-09-12T09:33:09;4.00;;;0.80;;
12348;SDS011;5974;42.710;27.258;2022-09-12T09:35:39;1.80;;;0.70;;
12348;SDS011;5974;42.710;27.258;2022-09-12T09:38:14;2.00;;;0.73;;
12348;SDS011;5974;42.710;27.258;2022-09-12T09:40:44;3.23;;;0.83;;
12348;SDS011;5974;42.710;27.258;2022-09-12T09:43:15;0.83;;;0.83;;
12348;SDS011;5974;42.710;27.258;2022-09-12T09:45:44;1.37;;;0.70;;
12348;SDS011;5974;42.710;27.258;2022-09-12T09:48:14;2.53;;;0.80;;
12348;SDS011;5974;42.710;27.258;2022-09-12T09:50:42;4.93;;;0.90;;
12348;SDS011;5974;42.710;27.258;2022-09-12T09:53:11;1.90;;;0.70;;
12348;SDS011;5974;42.710;27.258;2022-09-12T09:55:40;1.67;;;0.63;;
12348;SDS011;5974;42.710;27.258;2022-09-12T09:58:08;2.47;;;0.73;;
12348;SDS011;5974;42.710;27.258;2022-09-12T10:00:35;1.33;;;0.57;;
12348;SDS011;5974;42.710;27.258;2022-09-12T10:05:49;2.50;;;0.70;;
12348;SDS011;5974;42.710;27.258;2022-09-12T10:08:19;2.40;;;0.70;;
12348;SDS011;5974;42.710;27.258;2022-09-12T10:10:51;1.80;;;0.70;;
12348;SDS011;5974;42.710;27.258;2022-09-12T10:13:21;0.83;;;0.80;;
12348;SDS011;5974;42.710;27.258;2022-09-12T10:15:54;0.70;;;0.70;;
12348;SDS011;5974;42.710;27.258;2022-09-12T10:18:25;0.87;;;0.63;;
12348;SDS011;5974;42.710;27.258;2022-09-12T10:20:59;1.57;;;0.63;;
12348;SDS011;5974;42.710;27.258;2022-09-12T10:23:29;0.70;;;0.67;;
12348;SDS011;5974;42.710;27.258;2022-09-12T10:25:58;1.07;;;0.80;;
12348;SDS011;5974;42.710;27.258;2022-09-12T10:28:28;0.70;;;0.70;;
12348;SDS011;5974;42.710;27.258;2022-09-12T10:30:56;1.23;;;0.70;;
12348;SDS011;5974;42.710;27.258;2022-09-12T10:33:27;1.47;;;0.63;;
12348;SDS011;5974;42.710;27.258;2022-09-12T10:35:54;0.87;;;0.60;;
12348;SDS011;5974;42.710;27.258;2022-09-12T10:38:23;0.60;;;0.50;;
12348;SDS011;5974;42.710;27.258;2022-09-12T10:40:56;0.70;;;0.70;;
12348;SDS011;5974;42.710;27.258;2022-09-12T10:43:28;1.40;;;0.70;;
12348;SDS011;5974;42.710;27.258;2022-09-12T10:45:58;3.00;;;0.80;;
12348;SDS011;5974;42.710;27.258;2022-09-12T10:48:26;0.67;;;0.67;;
12348;SDS011;5974;42.710;27.258;2022-09-12T10:50:54;0.73;;;0.50;;
12348;SDS011;5974;42.710;27.258;2022-09-12T10:53:23;1.13;;;0.60;;
12348;SDS011;5974;42.710;27.258;2022-09-12T10:55:59;2.57;;;0.93;;
12348;SDS011;5974;42.710;27.258;2022-09-12T10:58:30;0.90;;;0.60;;
12348;SDS011;5974;42.710;27.258;2022-09-12T11:01:03;1.23;;;0.60;;
12348;SDS011;5974;42.710;27.258;2022-09-12T11:03:37;3.37;;;0.80;;
12348;SDS011;5974;42.710;27.258;2022-09-12T11:06:06;1.90;;;0.80;;
12348;SDS011;5974;42.710;27.258;2022-09-12T11:08:50;2.67;;;0.70;;
12348;SDS011;5974;42.710;27.258;2022-09-12T11:11:27;0.87;;;0.50;;
12348;SDS011;5974;42.710;27.258;2022-09-12T11:13:59;1.93;;;0.47;;
12348;SDS011;5974;42.710;27.258;2022-09-12T11:16:31;0.57;;;0.53;;
12348;SDS011;5974;42.710;27.258;2022-09-12T11:21:47;1.33;;;0.70;;
12348;SDS011;5974;42.710;27.258;2022-09-12T11:24:22;2.60;;;0.60;;
12348;SDS011;5974;42.710;27.258;2022-09-12T11:26:56;1.27;;;0.50;;
12348;SDS011;5974;42.710;27.258;2022-09-12T11:29:29;0.47;;;0.47;;
12348;SDS011;5974;42.710;27.258;2022-09-12T11:32:03;0.70;;;0.70;;
12348;SDS011;5974;42.710;27.258;2022-09-12T11:34:32;0.60;;;0.60;;
12348;SDS011;5974;42.710;27.258;2022-09-12T11:37:07;0.97;;;0.57;;
12348;SDS011;5974;42.710;27.258;2022-09-12T11:39:38;1.20;;;0.53;;
12348;SDS011;5974;42.710;27.258;2022-09-12T11:42:06;0.50;;;0.50;;
12348;SDS011;5974;42.710;27.258;2022-09-12T11:44:35;0.60;;;0.60;;
12348;SDS011;5974;42.710;27.258;2022-09-12T11:47:03;0.60;;;0.60;;
12348;SDS011;5974;42.710;27.258;2022-09-12T11:49:31;0.47;;;0.47;;
12348;SDS011;5974;42.710;27.258;2022-09-12T11:51:59;0.70;;;0.60;;
12348;SDS011;5974;42.710;27.258;2022-09-12T11:54:29;0.63;;;0.63;;
12348;SDS011;5974;42.710;27.258;2022-09-12T11:57:02;0.67;;;0.50;;
12348;SDS011;5974;42.710;27.258;2022-09-12T11:59:34;1.60;;;0.53;;
12348;SDS011;5974;42.710;27.258;2022-09-12T12:02:03;1.63;;;0.60;;
12348;SDS011;5974;42.710;27.258;2022-09-12T12:04:36;0.50;;;0.50;;
12348;SDS011;5974;42.710;27.258;2022-09-12T12:07:05;0.60;;;0.33;;
12348;SDS011;5974;42.710;27.258;2022-09-12T12:09:45;0.60;;;0.60;;
12348;SDS011;5974;42.710;27.258;2022-09-12T12:12:15;1.07;;;0.53;;
12348;SDS011;5974;42.710;27.258;2022-09-12T12:14:43;2.87;;;0.60;;
12348;SDS011;5974;42.710;27.258;2022-09-12T12:17:12;0.50;;;0.50;;
12348;SDS011;5974;42.710;27.258;2022-09-12T12:19:39;0.50;;;0.50;;
12348;SDS011;5974;42.710;27.258;2022-09-12T12:22:07;2.17;;;0.60;;
12348;SDS011;5974;42.710;27.258;2022-09-12T12:24:34;0.40;;;0.40;;
12348;SDS011;5974;42.710;27.258;2022-09-12T12:27:23;2.60;;;0.67;;
12348;SDS011;5974;42.710;27.258;2022-09-12T12:29:51;0.50;;;0.40;;
12348;SDS011;5974;42.710;27.258;2022-09-12T12:32:21;2.07;;;0.60;;
12348;SDS011;5974;42.710;27.258;2022-09-12T12:34:48;0.50;;;0.50;;
12348;SDS011;5974;42.710;27.258;2022-09-12T12:40:05;0.50;;;0.50;;
12348;SDS011;5974;42.710;27.258;2022-09-12T12:45:57;0.50;;;0.50;;
12348;SDS011;5974;42.710;27.258;2022-09-12T12:48:24;0.53;;;0.53;;
12348;SDS011;5974;42.710;27.258;2022-09-12T12:50:51;2.47;;;0.50;;
12348;SDS011;5974;42.710;27.258;2022-09-12T12:53:19;3.30;;;0.70;;
12348;SDS011;5974;42.710;27.258;2022-09-12T12:55:47;1.60;;;0.70;;
12348;SDS011;5974;42.710;27.258;2022-09-12T12:58:27;0.60;;;0.60;;
12348;SDS011;5974;42.710;27.258;2022-09-12T13:01:09;0.60;;;0.60;;
12348;SDS011;5974;42.710;27.258;2022-09-12T13:03:37;0.60;;;0.60;;
12348;SDS011;5974;42.710;27.258;2022-09-12T13:06:06;0.70;;;0.70;;
12348;SDS011;5974;42.710;27.258;2022-09-12T13:08:35;0.60;;;0.60;;
12348;SDS011;5974;42.710;27.258;2022-09-12T13:11:05;0.70;;;0.50;;
12348;SDS011;5974;42.710;27.258;2022-09-12T13:13:34;1.00;;;0.67;;
12348;SDS011;5974;42.710;27.258;2022-09-12T13:16:02;0.57;;;0.57;;
12348;SDS011;5974;42.710;27.258;2022-09-12T13:18:31;1.03;;;0.60;;
12348;SDS011;5974;42.710;27.258;2022-09-12T13:21:00;0.60;;;0.60;;
12348;SDS011;5974;42.710;27.258;2022-09-12T13:23:32;1.80;;;0.50;;
12348;SDS011;5974;42.710;27.258;2022-09-12T13:25:59;0.50;;;0.50;;
12348;SDS011;5974;42.710;27.258;2022-09-12T13:28:27;1.70;;;0.53;;
12348;SDS011;5974;42.710;27.258;2022-09-12T13:30:55;0.60;;;0.60;;
12348;SDS011;5974;42.710;27.258;2022-09-12T13:33:24;1.77;;;0.50;;
12348;SDS011;5974;42.710;27.258;2022-09-12T13:36:08;3.03;;;0.60;;
12348;SDS011;5974;42.710;27.258;2022-09-12T13:38:36;4.63;;;0.87;;
12348;SDS011;5974;42.710;27.258;2022-09-12T13:41:14;0.60;;;0.60;;
12348;SDS011;5974;42.710;27.258;2022-09-12T13:43:44;0.60;;;0.60;;
12348;SDS011;5974;42.710;27.258;2022-09-12T13:46:12;0.57;;;0.57;;
12348;SDS011;5974;42.710;27.258;2022-09-12T13:48:40;0.60;;;0.60;;
12348;SDS011;5974;42.710;27.258;2022-09-12T13:51:17;1.60;;;0.60;;
12348;SDS011;5974;42.710;27.258;2022-09-12T13:53:45;0.70;;;0.70;;
12348;SDS011;5974;42.710;27.258;2022-09-12T13:56:14;0.60;;;0.60;;
12348;SDS011;5974;42.710;27.258;2022-09-12T13:58:49;2.63;;;0.70;;
12348;SDS011;5974;42.710;27.258;2022-09-12T14:01:18;3.00;;;0.60;;
12348;SDS011;5974;42.710;27.258;2022-09-12T14:03:47;1.00;;;0.70;;
12348;SDS011;5974;42.710;27.258;2022-09-12T14:06:35;0.50;;;0.50;;
12348;SDS011;5974;42.710;27.258;2022-09-12T14:09:06;0.60;;;0.60;;
12348;SDS011;5974;42.710;27.258;2022-09-12T14:11:37;1.23;;;0.60;;
12348;SDS011;5974;42.710;27.258;2022-09-12T14:14:05;0.60;;;0.60;;
12348;SDS011;5974;42.710;27.258;2022-09-12T14:16:32;0.97;;;0.60;;
12348;SDS011;5974;42.710;27.258;2022-09-12T14:19:03;0.70;;;0.70;;
12348;SDS011;5974;42.710;27.258;2022-09-12T14:21:31;1.63;;;0.53;;
12348;SDS011;5974;42.710;27.258;2022-09-12T14:24:00;3.13;;;0.60;;
12348;SDS011;5974;42.710;27.258;2022-09-12T14:26:29;0.70;;;0.70;;
12348;SDS011;5974;42.710;27.258;2022-09-12T14:28:58;0.70;;;0.60;;
12348;SDS011;5974;42.710;27.258;2022-09-12T14:31:27;1.80;;;0.90;;
12348;SDS011;5974;42.710;27.258;2022-09-12T14:33:55;1.23;;;0.73;;
12348;SDS011;5974;42.710;27.258;2022-09-12T14:36:24;1.37;;;0.67;;
12348;SDS011;5974;42.710;27.258;2022-09-12T14:38:53;1.30;;;0.60;;
12348;SDS011;5974;42.710;27.258;2022-09-12T14:41:23;0.73;;;0.73;;
12348;SDS011;5974;42.710;27.258;2022-09-12T14:43:51;0.67;;;0.67;;
12348;SDS011;5974;42.710;27.258;2022-09-12T14:46:22;3.20;;;0.67;;
12348;SDS011;5974;42.710;27.258;2022-09-12T14:48:51;5.03;;;0.63;;
12348;SDS011;5974;42.710;27.258;2022-09-12T14:51:20;3.03;;;0.70;;
12348;SDS011;5974;42.710;27.258;2022-09-12T14:53:47;3.80;;;0.83;;
12348;SDS011;5974;42.710;27.258;2022-09-12T14:56:14;0.80;;;0.80;;
12348;SDS011;5974;42.710;27.258;2022-09-12T14:58:42;0.93;;;0.70;;
12348;SDS011;5974;42.710;27.258;2022-09-12T15:01:24;3.60;;;0.60;;
12348;SDS011;5974;42.710;27.258;2022-09-12T15:03:52;3.47;;;0.80;;
12348;SDS011;5974;42.710;27.258;2022-09-12T15:06:20;4.63;;;0.80;;
12348;SDS011;5974;42.710;27.258;2022-09-12T15:08:47;2.73;;;0.60;;
12348;SDS011;5974;42.710;27.258;2022-09-12T15:11:14;2.23;;;0.80;;
12348;SDS011;5974;42.710;27.258;2022-09-12T15:13:42;1.63;;;0.93;;
12348;SDS011;5974;42.710;27.258;2022-09-12T15:16:09;1.30;;;0.70;;
12348;SDS011;5974;42.710;27.258;2022-09-12T15:18:36;1.73;;;0.80;;
12348;SDS011;5974;42.710;27.258;2022-09-12T15:21:03;2.23;;;1.00;;
12348;SDS011;5974;42.710;27.258;2022-09-12T15:23:34;1.60;;;0.70;;
12348;SDS011;5974;42.710;27.258;2022-09-12T15:26:04;0.80;;;0.80;;
12348;SDS011;5974;42.710;27.258;2022-09-12T15:28:31;2.73;;;0.80;;
12348;SDS011;5974;42.710;27.258;2022-09-12T15:31:01;4.90;;;1.00;;
12348;SDS011;5974;42.710;27.258;2022-09-12T15:33:28;1.53;;;0.97;;
12348;SDS011;5974;42.710;27.258;2022-09-12T15:35:55;1.03;;;0.97;;